Air Navigation Services of Czech Republic
Airport: LKMT Updated:  21.07.2024 00:30:41  UTC
 METAR LKMT 21.07. 00:30 ...
METAR LKMT 210030Z 02002KT CAVOK 18/16 Q1010 NOSIG=
 TAF LKMT 20.07. 23:00 ...
TAF LKMT 202300Z 2100/2200 VRB02KT CAVOK      TEMPO 2107/2117 02010KT=